KJSL/JSL METAR and TAF weather

Enter ICAO airport designator
Station Type Date Time Source
KJSL METAR 2019/04/25 07:20 UTC NOAA

KJSL 250720Z AUTO 13014G21KT 10SM BKN015 24/22 A2984 RMK A01


Station Type Date Time Source
KJSL Decoded METAR 2019/04/25 07:20 UTC NOAA

Station name not available
Apr 25, 2019 - 03:20 AM EDT / 2019.04.25 0720 UTC
Wind: from the SE (130 degrees) at 16 MPH (14 KT) gusting to 24 MPH (21 KT):0
Visibility: 10 mile(s):0
Sky conditions: mostly cloudy
Temperature: 75 F (24 C)
Dew Point: 71 F (22 C)
Relative Humidity: 88%
Pressure (altimeter): 29.84 in. Hg (1010 hPa)
ob: KJSL 250720Z AUTO 13014G21KT 10SM BKN015 24/22 A2984 RMK A01
cycle: 7

Station Type Date Time Source
KJSL TAF UTC NOAA

Error!

Example: see airport list